createdAt,value
2022-12-03T00:02:26.663Z,83.0
2022-12-03T00:07:26.659Z,83.0
2022-12-03T00:12:26.744Z,83.0
2022-12-03T00:17:26.595Z,83.0
2022-12-03T00:22:26.590Z,83.0
2022-12-03T00:27:26.593Z,82.5
2022-12-03T00:32:26.677Z,83.0
2022-12-03T00:37:26.628Z,83.0
2022-12-03T00:42:26.600Z,83.0
2022-12-03T00:47:26.603Z,82.5
2022-12-03T00:52:26.704Z,83.0
2022-12-03T00:57:26.606Z,83.0
2022-12-03T01:02:26.607Z,83.0
2022-12-03T01:07:26.698Z,83.0
2022-12-03T01:12:26.775Z,83.0
2022-12-03T01:17:26.608Z,83.0
2022-12-03T01:22:26.713Z,83.0
2022-12-03T01:27:26.611Z,82.5
2022-12-03T01:32:26.707Z,83.0
2022-12-03T01:37:26.627Z,83.0
2022-12-03T01:42:26.616Z,83.0
2022-12-03T01:47:26.718Z,83.0
2022-12-03T01:52:26.621Z,83.0
2022-12-03T01:57:26.617Z,83.5
2022-12-03T02:02:26.966Z,83.0
2022-12-03T02:07:26.811Z,83.0
2022-12-03T02:12:26.626Z,83.0
2022-12-03T02:17:26.628Z,83.0
2022-12-03T02:22:26.630Z,83.0
2022-12-03T02:27:26.640Z,82.5
2022-12-03T02:32:26.620Z,83.0
2022-12-03T02:37:26.630Z,83.0
2022-12-03T02:42:26.700Z,83.0
2022-12-03T02:47:26.651Z,83.0
2022-12-03T02:52:26.648Z,83.0
2022-12-03T02:57:26.630Z,83.5
2022-12-03T03:02:26.714Z,83.5
2022-12-03T03:07:26.713Z,83.5
2022-12-03T03:12:26.728Z,83.0
2022-12-03T03:17:26.655Z,83.5
2022-12-03T03:22:26.640Z,83.5
2022-12-03T03:27:26.646Z,83.5
2022-12-03T03:32:26.662Z,83.5
2022-12-03T03:37:26.665Z,83.5
2022-12-03T03:42:26.739Z,83.5
2022-12-03T03:47:26.653Z,83.5
2022-12-03T03:52:26.756Z,83.0
2022-12-03T03:57:26.643Z,83.5
2022-12-03T04:02:26.661Z,83.5
2022-12-03T04:07:26.732Z,84.0
2022-12-03T04:12:26.654Z,83.5
2022-12-03T04:17:26.760Z,84.0
2022-12-03T04:22:26.656Z,83.5
2022-12-03T04:27:26.886Z,84.0
2022-12-03T04:32:26.658Z,84.0
2022-12-03T04:37:26.667Z,84.0
2022-12-03T04:42:26.751Z,84.5
2022-12-03T04:47:26.659Z,84.0
2022-12-03T04:52:26.661Z,84.0
2022-12-03T04:57:26.660Z,84.5
2022-12-03T05:02:26.785Z,84.5
2022-12-03T05:07:26.690Z,84.5
2022-12-03T05:12:26.675Z,85.0
2022-12-03T05:17:26.671Z,85.0
2022-12-03T05:22:26.795Z,85.0
2022-12-03T05:27:26.801Z,85.0
2022-12-03T05:32:26.669Z,85.5
2022-12-03T05:37:26.808Z,85.5
2022-12-03T05:42:26.674Z,85.5
2022-12-03T05:47:26.741Z,85.5
2022-12-03T05:52:26.788Z,85.5
2022-12-03T05:57:26.674Z,85.5
2022-12-03T06:02:26.925Z,86.0
2022-12-03T06:07:26.775Z,85.5
2022-12-03T06:12:26.684Z,85.5
2022-12-03T06:17:26.688Z,85.5
2022-12-03T06:22:26.720Z,85.5
2022-12-03T06:27:26.685Z,85.5
2022-12-03T06:32:26.690Z,85.5
2022-12-03T06:37:26.707Z,85.0
2022-12-03T06:42:26.705Z,85.5
2022-12-03T06:47:26.688Z,85.5
2022-12-03T06:52:26.809Z,85.5
2022-12-03T06:57:26.691Z,85.0
2022-12-03T07:02:26.749Z,85.0
2022-12-03T07:07:26.726Z,85.0
2022-12-03T07:12:26.772Z,85.0
2022-12-03T07:17:26.792Z,85.0
2022-12-03T07:22:26.697Z,85.0
2022-12-03T07:27:26.702Z,84.5
2022-12-03T07:32:26.800Z,85.0
2022-12-03T07:37:26.798Z,85.0
2022-12-03T07:42:26.849Z,85.0
2022-12-03T07:47:26.733Z,85.0
2022-12-03T07:52:26.709Z,85.0
2022-12-03T07:57:26.784Z,84.5
2022-12-03T08:02:26.763Z,85.0
2022-12-03T08:07:26.968Z,84.5
2022-12-03T08:12:26.709Z,84.0
2022-12-03T08:17:26.705Z,84.5
2022-12-03T08:22:26.807Z,84.5
2022-12-03T08:27:26.715Z,84.0
2022-12-03T08:32:26.765Z,84.0
2022-12-03T08:37:26.798Z,84.0
2022-12-03T08:42:26.853Z,84.5
2022-12-03T08:47:26.763Z,84.0
2022-12-03T08:52:26.732Z,83.5
2022-12-03T08:57:26.813Z,84.0
2022-12-03T09:02:26.859Z,84.0
2022-12-03T09:07:27.016Z,83.5
2022-12-03T09:12:26.754Z,83.5
2022-12-03T09:17:26.821Z,84.0
2022-12-03T09:22:26.918Z,84.0
2022-12-03T09:27:26.724Z,83.5
2022-12-03T09:32:26.825Z,83.5
2022-12-03T09:37:26.816Z,84.0
2022-12-03T09:42:26.730Z,84.0
2022-12-03T09:47:26.737Z,84.0
2022-12-03T09:52:26.830Z,84.0
2022-12-03T09:57:26.739Z,84.0
2022-12-03T10:02:26.733Z,83.0
2022-12-03T10:07:26.775Z,82.5
2022-12-03T10:12:26.739Z,83.0
2022-12-03T10:17:26.811Z,82.5
2022-12-03T10:22:26.736Z,81.5
2022-12-03T10:27:26.746Z,81.0
2022-12-03T10:32:26.749Z,81.5
2022-12-03T10:37:26.746Z,81.0
2022-12-03T10:42:26.758Z,81.0
2022-12-03T10:47:26.978Z,80.5
2022-12-03T10:52:26.761Z,80.0
2022-12-03T10:57:26.755Z,80.0
2022-12-03T11:02:26.748Z,80.0
2022-12-03T11:07:26.893Z,80.0
2022-12-03T11:12:26.860Z,81.0
2022-12-03T11:17:26.765Z,81.0
2022-12-03T11:22:26.758Z,80.5
2022-12-03T11:27:26.776Z,80.5
2022-12-03T11:32:31.773Z,80.0
2022-12-03T11:37:26.858Z,80.0
2022-12-03T11:42:26.983Z,80.0
2022-12-03T11:47:26.777Z,80.0
2022-12-03T11:52:26.764Z,79.5
2022-12-03T11:57:26.871Z,79.5
2022-12-03T12:02:26.868Z,80.5
2022-12-03T12:07:26.809Z,80.5
2022-12-03T12:12:26.773Z,80.5
2022-12-03T12:17:26.775Z,80.5
2022-12-03T12:22:26.772Z,80.0
2022-12-03T12:27:26.768Z,80.5
2022-12-03T12:32:26.777Z,80.0
2022-12-03T12:37:26.780Z,80.0
2022-12-03T12:42:26.777Z,80.0
2022-12-03T12:47:26.929Z,80.0
2022-12-03T12:52:26.782Z,80.5
2022-12-03T12:57:26.799Z,80.5
2022-12-03T13:02:26.848Z,80.5
2022-12-03T13:07:26.804Z,80.5
2022-12-03T13:12:26.782Z,81.0
2022-12-03T13:17:26.893Z,80.5
2022-12-03T13:22:26.787Z,81.0
2022-12-03T13:27:26.784Z,80.5
2022-12-03T13:32:26.878Z,80.5
2022-12-03T13:37:26.788Z,80.5
2022-12-03T13:42:26.794Z,81.0
2022-12-03T13:47:26.882Z,81.0
2022-12-03T13:52:26.792Z,80.0
2022-12-03T13:57:26.793Z,80.5
2022-12-03T14:02:26.872Z,80.5
2022-12-03T14:07:26.897Z,80.5
2022-12-03T14:12:26.796Z,80.5
2022-12-03T14:17:26.800Z,80.0
2022-12-03T14:22:26.798Z,80.0
2022-12-03T14:27:26.800Z,80.5
2022-12-03T14:32:26.806Z,80.5
2022-12-03T14:37:26.808Z,80.5
2022-12-03T14:42:26.805Z,81.0
2022-12-03T14:47:26.898Z,81.0
2022-12-03T14:52:26.805Z,81.0
2022-12-03T14:57:26.813Z,80.5
2022-12-03T15:02:26.860Z,81.0
2022-12-03T15:07:26.894Z,80.5
2022-12-03T15:12:26.805Z,81.5
2022-12-03T15:17:32.102Z,81.5
2022-12-03T15:22:26.909Z,81.5
2022-12-03T15:27:26.814Z,81.5
2022-12-03T15:32:26.910Z,81.5
2022-12-03T15:37:26.910Z,81.5
2022-12-03T15:42:26.821Z,81.5
2022-12-03T15:47:26.922Z,81.5
2022-12-03T15:52:26.914Z,82.0
2022-12-03T15:57:26.927Z,82.5
2022-12-03T16:02:27.057Z,83.0
2022-12-03T16:07:27.160Z,83.0
2022-12-03T16:12:26.924Z,83.0
2022-12-03T16:17:26.982Z,83.5
2022-12-03T16:22:26.924Z,83.5
2022-12-03T16:27:26.922Z,84.0
2022-12-03T16:32:26.917Z,84.0
2022-12-03T16:37:26.927Z,84.0
2022-12-03T16:42:26.940Z,84.0
2022-12-03T16:47:32.073Z,84.0
2022-12-03T16:52:26.930Z,84.0
2022-12-03T16:57:33.157Z,84.0
2022-12-03T17:02:26.999Z,84.0
2022-12-03T17:07:26.993Z,84.5
2022-12-03T17:12:37.430Z,84.0
2022-12-03T17:17:26.937Z,84.5
2022-12-03T17:22:27.010Z,84.5
2022-12-03T17:27:26.934Z,84.0
2022-12-03T17:32:26.935Z,84.5
2022-12-03T17:37:26.938Z,84.5
2022-12-03T17:42:26.940Z,84.5
2022-12-03T17:47:26.955Z,84.5
2022-12-03T17:52:26.943Z,84.5
2022-12-03T17:57:26.939Z,84.5
2022-12-03T18:02:26.944Z,84.5
2022-12-03T18:07:27.020Z,84.5
2022-12-03T18:12:26.943Z,84.5
2022-12-03T18:17:26.942Z,84.5
2022-12-03T18:22:27.200Z,84.5
2022-12-03T18:27:26.946Z,84.5
2022-12-03T18:32:30.168Z,84.5
2022-12-03T18:37:26.952Z,84.5
2022-12-03T18:42:26.953Z,84.5
2022-12-03T18:47:27.126Z,84.5
2022-12-03T18:52:26.953Z,85.0
2022-12-03T18:57:26.956Z,85.0
2022-12-03T19:03:01.402Z,85.0
2022-12-03T19:07:26.964Z,85.0
2022-12-03T19:12:26.954Z,85.0
2022-12-03T19:17:27.098Z,84.5
2022-12-03T19:22:26.958Z,84.5
2022-12-03T19:27:26.961Z,85.0
2022-12-03T19:32:26.960Z,85.0
2022-12-03T19:37:27.058Z,85.0
2022-12-03T19:42:26.958Z,85.0
2022-12-03T19:47:26.960Z,85.0
2022-12-03T19:52:26.965Z,85.0
2022-12-03T19:57:26.965Z,85.0
2022-12-03T20:02:27.179Z,85.0
2022-12-03T20:07:27.045Z,85.0
2022-12-03T20:12:26.977Z,85.0
2022-12-03T20:17:26.970Z,85.0
2022-12-03T20:22:27.117Z,85.0
2022-12-03T20:27:26.977Z,85.0
2022-12-03T20:32:26.976Z,85.0
2022-12-03T20:37:27.079Z,85.0
2022-12-03T20:42:26.976Z,85.0
2022-12-03T20:47:26.981Z,85.5
2022-12-03T20:52:26.979Z,85.0
2022-12-03T20:57:26.981Z,85.5
2022-12-03T21:02:27.010Z,85.5
2022-12-03T21:07:27.062Z,85.5
2022-12-03T21:12:27.076Z,85.5
2022-12-03T21:17:27.068Z,85.5
2022-12-03T21:22:26.997Z,85.5
2022-12-03T21:27:27.041Z,85.5
2022-12-03T21:32:26.991Z,85.5
2022-12-03T21:37:26.999Z,85.5
2022-12-03T21:42:35.458Z,85.5
2022-12-03T21:47:28.948Z,85.5
2022-12-03T21:52:26.997Z,85.5
2022-12-03T21:57:26.992Z,85.5
2022-12-03T22:02:27.051Z,85.5
2022-12-03T22:07:27.071Z,85.5
2022-12-03T22:12:27.009Z,85.5
2022-12-03T22:17:27.001Z,85.5
2022-12-03T22:22:27.002Z,85.5
2022-12-03T22:27:27.017Z,85.5
2022-12-03T22:32:27.005Z,85.5
2022-12-03T22:37:27.003Z,85.5
2022-12-03T22:42:27.009Z,85.5
2022-12-03T22:47:27.008Z,85.5
2022-12-03T22:52:27.004Z,85.5
2022-12-03T22:57:27.011Z,85.5
2022-12-03T23:02:27.034Z,85.5
2022-12-03T23:12:27.039Z,86.0
2022-12-03T23:17:27.019Z,86.0
2022-12-03T23:22:27.061Z,86.0
2022-12-03T23:27:27.022Z,86.0
2022-12-03T23:32:27.007Z,86.0
2022-12-03T23:37:27.023Z,86.0
2022-12-03T23:42:27.023Z,86.0
2022-12-03T23:47:27.022Z,86.0
2022-12-03T23:52:27.026Z,86.0
2022-12-03T23:57:27.015Z,86.0
